Time;durP1;ratioP1;P1;durP2;ratioP2;P2;SDS_P1;SDS_P2;PMS_P1;PMS_P2;Temp;Humidity;BMP_temperature;BMP_pressure;BME280_temperature;BME280_humidity;BME280_pressure;Samples;Min_cycle;Max_cycle;Signal;HPM_P1;HPM_P2
2022/06/10 00:01:23;;;;;;;2.22;1.85;;;17.00;60.10;;;;;;5071404;28;20044;-47
2022/06/10 00:03:50;;;;;;;2.22;2.03;;;17.00;60.20;;;;;;5072074;28;20098;-50
2022/06/10 00:06:19;;;;;;;1.85;1.75;;;16.90;60.20;;;;;;5063449;28;20585;-49
2022/06/10 00:08:51;;;;;;;2.45;2.15;;;16.90;60.30;;;;;;5066860;28;20497;-49
2022/06/10 00:11:17;;;;;;;2.90;1.92;;;16.80;60.10;;;;;;5069580;28;20075;-50
2022/06/10 00:13:50;;;;;;;3.97;2.05;;;16.80;60.20;;;;;;5067531;28;20048;-54
2022/06/10 00:16:20;;;;;;;4.88;1.85;;;16.70;60.10;;;;;;5069356;28;20087;-51
2022/06/10 00:18:56;;;;;;;1.75;1.65;;;16.70;60.20;;;;;;5065024;28;20071;-49
2022/06/10 00:21:27;;;;;;;2.88;1.85;;;16.70;60.70;;;;;;5069948;28;20075;-51
2022/06/10 00:23:56;;;;;;;3.80;2.50;;;16.60;60.30;;;;;;5065519;28;20061;-48
2022/06/10 00:26:22;;;;;;;2.60;2.40;;;16.60;60.50;;;;;;5061926;28;20040;-49
2022/06/10 00:28:53;;;;;;;2.97;2.40;;;16.50;60.60;;;;;;5080225;28;20044;-48
2022/06/10 00:31:20;;;;;;;3.50;2.80;;;16.50;61.20;;;;;;5075765;28;20045;-51
2022/06/10 00:33:52;;;;;;;3.63;3.00;;;16.50;61.30;;;;;;5067274;28;20094;-53
2022/06/10 00:36:19;;;;;;;4.05;2.75;;;16.50;61.80;;;;;;5061598;28;20049;-47
2022/06/10 00:38:48;;;;;;;6.45;4.13;;;16.50;62.30;;;;;;5069295;28;20139;-50
2022/06/10 00:41:16;;;;;;;4.00;3.60;;;16.50;63.10;;;;;;5068443;28;20087;-52
2022/06/10 00:43:45;;;;;;;5.10;3.53;;;16.50;63.40;;;;;;5071121;28;20536;-53
2022/06/10 00:46:29;;;;;;;5.70;3.33;;;16.50;63.80;;;;;;5060647;28;20057;-47
2022/06/10 00:49:07;;;;;;;4.68;3.85;;;16.50;65.00;;;;;;5034655;28;20041;-50
2022/06/10 00:51:53;;;;;;;4.38;3.97;;;16.60;64.00;;;;;;5057755;28;20055;-47
2022/06/10 00:54:35;;;;;;;6.07;3.40;;;16.60;65.30;;;;;;5062056;28;20059;-48
2022/06/10 00:57:25;;;;;;;4.45;3.42;;;16.70;65.00;;;;;;5071056;28;20048;-51
2022/06/10 01:00:10;;;;;;;5.28;3.05;;;16.70;64.30;;;;;;5056348;28;20068;-53
2022/06/10 01:02:41;;;;;;;4.78;3.05;;;16.80;65.00;;;;;;5063975;28;20447;-48
2022/06/10 01:05:19;;;;;;;4.28;3.35;;;16.80;64.50;;;;;;5057542;28;20094;-50
2022/06/10 01:07:51;;;;;;;3.90;3.38;;;16.80;64.80;;;;;;5058244;28;20508;-52
2022/06/10 01:10:23;;;;;;;4.60;3.15;;;16.90;64.10;;;;;;5059573;28;20041;-47
2022/06/10 01:12:56;;;;;;;6.25;3.50;;;16.90;63.80;;;;;;5070260;28;20090;-47
2022/06/10 01:15:46;;;;;;;4.88;2.90;;;16.90;63.70;;;;;;5060832;28;20415;-55
2022/06/10 01:18:43;;;;;;;5.97;3.17;;;16.90;63.90;;;;;;5063723;28;20049;-51
2022/06/10 01:21:29;;;;;;;4.15;2.78;;;16.90;63.90;;;;;;5070443;28;20095;-51
2022/06/10 01:24:23;;;;;;;4.18;2.88;;;16.90;63.70;;;;;;5064705;28;20040;-50
2022/06/10 01:30:16;;;;;;;4.57;3.75;;;16.80;63.90;;;;;;5068212;28;20044;-50
2022/06/10 01:33:02;;;;;;;4.13;2.80;;;16.80;63.40;;;;;;5058758;28;20049;-47
2022/06/10 01:36:04;;;;;;;5.28;3.00;;;16.80;63.60;;;;;;5048851;28;20106;-50
2022/06/10 01:38:51;;;;;;;4.95;3.35;;;16.70;64.20;;;;;;5028388;28;20080;-50
2022/06/10 01:41:38;;;;;;;3.85;3.03;;;16.70;64.00;;;;;;5059955;28;20560;-53
2022/06/10 01:44:19;;;;;;;6.53;3.17;;;16.70;64.10;;;;;;5070636;28;20044;-51
2022/06/10 01:46:57;;;;;;;5.50;2.80;;;16.70;63.80;;;;;;5062499;28;20071;-50
2022/06/10 01:49:33;;;;;;;3.33;3.03;;;16.60;63.80;;;;;;5068342;28;20450;-49
2022/06/10 01:52:02;;;;;;;2.90;2.60;;;16.60;63.60;;;;;;5062028;28;20052;-51
2022/06/10 01:54:50;;;;;;;3.90;2.60;;;16.60;63.10;;;;;;5069598;28;20103;-49
2022/06/10 01:57:30;;;;;;;4.10;2.97;;;16.60;63.30;;;;;;5067690;28;20048;-48
2022/06/10 02:00:21;;;;;;;4.30;2.72;;;16.50;62.70;;;;;;5063465;28;20049;-48
2022/06/10 02:03:12;;;;;;;3.22;2.47;;;16.50;62.70;;;;;;5089130;28;20404;-48
2022/06/10 02:06:02;;;;;;;3.65;2.55;;;16.40;63.00;;;;;;5061105;28;20041;-48
2022/06/10 02:08:36;;;;;;;3.40;2.60;;;16.40;62.40;;;;;;5070714;28;20098;-45
2022/06/10 02:11:26;;;;;;;2.60;2.40;;;16.30;62.50;;;;;;5069874;28;20041;-47
2022/06/10 02:14:15;;;;;;;3.47;2.35;;;16.30;62.90;;;;;;5074330;28;20458;-48
2022/06/10 02:16:45;;;;;;;3.67;2.65;;;16.20;63.00;;;;;;5057863;28;20520;-47
2022/06/10 02:19:34;;;;;;;3.30;2.30;;;16.10;62.70;;;;;;5063112;28;20407;-47
2022/06/10 02:22:12;;;;;;;4.68;2.17;;;16.10;63.00;;;;;;5073968;28;20040;-46
2022/06/10 02:24:57;;;;;;;2.17;1.98;;;16.10;62.80;;;;;;5070530;28;20106;-47
2022/06/10 02:27:31;;;;;;;3.47;2.42;;;16.00;62.60;;;;;;5070531;28;20044;-48
2022/06/10 02:30:20;;;;;;;2.95;2.47;;;16.00;63.00;;;;;;5068439;28;20110;-49
2022/06/10 02:32:50;;;;;;;6.00;2.63;;;15.90;64.00;;;;;;5068200;28;20610;-51
2022/06/10 02:35:22;;;;;;;4.75;2.63;;;15.90;63.60;;;;;;5053098;28;20044;-47
2022/06/10 02:38:24;;;;;;;4.15;2.70;;;16.00;63.90;;;;;;5065090;28;20059;-50
2022/06/10 02:41:03;;;;;;;3.53;2.70;;;15.90;64.80;;;;;;5034501;28;20144;-48
2022/06/10 02:43:58;;;;;;;5.50;2.63;;;16.00;64.80;;;;;;5068827;28;20099;-50
2022/06/10 02:46:38;;;;;;;4.43;2.47;;;16.00;65.40;;;;;;5068881;28;20119;-48
2022/06/10 02:49:12;;;;;;;4.57;2.60;;;16.00;65.40;;;;;;5069584;28;20519;-47
2022/06/10 02:51:42;;;;;;;7.07;3.33;;;16.10;65.20;;;;;;5067133;28;20066;-47
2022/06/10 02:54:16;;;;;;;5.30;3.15;;;16.10;65.70;;;;;;5065595;28;20045;-51
2022/06/10 02:56:43;;;;;;;4.90;2.92;;;16.10;66.00;;;;;;5052420;28;20045;-49
2022/06/10 03:01:55;;;;;;;5.95;3.05;;;16.20;66.00;;;;;;5067633;28;20048;-50
2022/06/10 03:04:43;;;;;;;3.78;2.85;;;16.30;65.90;;;;;;5071340;28;20045;-52
2022/06/10 03:07:13;;;;;;;4.32;2.95;;;16.40;66.30;;;;;;5064140;28;20067;-48
2022/06/10 03:10:26;;;;;;;4.07;2.85;;;16.40;66.00;;;;;;5071280;28;20407;-48
2022/06/10 03:13:07;;;;;;;4.45;2.65;;;16.50;67.10;;;;;;5062882;28;20055;-50
2022/06/10 03:15:39;;;;;;;7.97;2.47;;;16.60;66.40;;;;;;5055712;28;20074;-48
2022/06/10 03:18:14;;;;;;;4.40;2.50;;;16.60;66.00;;;;;;5067853;28;20243;-51
2022/06/10 03:20:49;;;;;;;4.78;2.90;;;16.70;66.60;;;;;;5068849;28;20098;-47
2022/06/10 03:23:44;;;;;;;7.65;3.20;;;16.80;66.10;;;;;;5070637;28;20403;-48
2022/06/10 03:26:20;;;;;;;7.22;2.65;;;16.80;66.80;;;;;;5062092;28;20529;-48
2022/06/10 03:29:13;;;;;;;3.45;2.15;;;16.90;66.50;;;;;;5062431;28;20491;-48
2022/06/10 03:32:00;;;;;;;3.95;2.72;;;16.90;66.70;;;;;;5068042;28;20089;-48
2022/06/10 03:34:37;;;;;;;5.55;3.00;;;17.00;66.70;;;;;;5064873;28;20540;-49
2022/06/10 03:37:11;;;;;;;7.28;2.17;;;17.10;66.40;;;;;;5058953;28;20041;-47
2022/06/10 03:39:41;;;;;;;6.50;2.40;;;17.10;66.10;;;;;;5063665;28;20486;-51
2022/06/10 03:42:15;;;;;;;3.72;2.22;;;17.10;66.00;;;;;;5066102;28;20036;-51
2022/06/10 03:44:51;;;;;;;5.10;2.53;;;17.20;66.60;;;;;;5063823;28;20485;-48
2022/06/10 03:47:29;;;;;;;5.10;2.33;;;17.20;66.10;;;;;;5061750;28;20098;-48
2022/06/10 03:50:04;;;;;;;3.90;2.83;;;17.30;65.80;;;;;;5064014;28;20040;-48
2022/06/10 03:52:36;;;;;;;4.40;2.45;;;17.30;66.20;;;;;;5059976;28;20050;-47
2022/06/10 03:55:08;;;;;;;5.25;2.55;;;17.40;65.80;;;;;;5060582;28;20111;-48
2022/06/10 03:57:35;;;;;;;7.88;3.38;;;17.40;65.30;;;;;;5064423;28;20053;-48
2022/06/10 04:00:06;;;;;;;4.10;2.42;;;17.40;65.80;;;;;;5064973;28;20037;-47
2022/06/10 04:02:38;;;;;;;4.55;2.20;;;17.50;65.20;;;;;;5065606;28;20126;-51
2022/06/10 04:05:05;;;;;;;5.82;2.47;;;17.60;65.10;;;;;;5059492;28;20039;-47
2022/06/10 04:07:35;;;;;;;3.10;1.80;;;17.50;65.30;;;;;;5064441;28;20032;-52
2022/06/10 04:10:02;;;;;;;4.28;2.20;;;17.60;65.80;;;;;;5060820;28;20044;-46
2022/06/10 04:12:31;;;;;;;3.00;2.28;;;17.60;64.80;;;;;;5061893;28;20047;-48
2022/06/10 04:15:05;;;;;;;6.68;2.60;;;17.70;64.70;;;;;;5058084;28;20053;-51
2022/06/10 04:17:33;;;;;;;7.03;2.25;;;17.70;64.70;;;;;;5059517;28;20045;-47
2022/06/10 04:19:59;;;;;;;5.10;2.20;;;17.70;64.40;;;;;;5063599;28;20045;-48
2022/06/10 04:22:27;;;;;;;3.95;2.60;;;17.80;64.50;;;;;;5062822;28;20045;-47
2022/06/10 04:24:55;;;;;;;5.75;2.50;;;17.80;64.50;;;;;;5065037;28;20037;-46
2022/06/10 04:27:21;;;;;;;5.70;2.40;;;17.80;64.40;;;;;;5060966;28;20473;-48
2022/06/10 04:29:51;;;;;;;3.88;2.40;;;17.90;64.40;;;;;;5060936;28;20033;-48
2022/06/10 04:32:17;;;;;;;5.05;2.30;;;17.90;64.30;;;;;;5048871;28;20040;-48
2022/06/10 04:34:44;;;;;;;7.43;2.22;;;17.90;64.10;;;;;;5059166;28;20051;-50
2022/06/10 04:37:11;;;;;;;3.50;1.80;;;17.90;64.00;;;;;;5063568;28;20506;-51
2022/06/10 04:39:38;;;;;;;4.93;2.20;;;17.90;63.90;;;;;;5066847;28;20102;-51
2022/06/10 04:42:05;;;;;;;3.60;1.98;;;18.00;64.00;;;;;;5063446;28;20060;-52
2022/06/10 04:44:32;;;;;;;4.72;1.70;;;18.00;64.10;;;;;;5069051;28;20036;-51
2022/06/10 04:46:59;;;;;;;3.97;1.92;;;18.00;64.10;;;;;;5055679;28;20073;-51
2022/06/10 04:49:25;;;;;;;3.67;1.77;;;18.00;64.10;;;;;;5054128;28;20052;-47
2022/06/10 04:51:52;;;;;;;4.35;1.80;;;18.10;64.10;;;;;;5068076;28;20083;-49
2022/06/10 04:54:19;;;;;;;4.78;1.98;;;18.10;63.90;;;;;;5060056;28;20059;-48
2022/06/10 04:56:45;;;;;;;5.88;2.05;;;18.20;63.90;;;;;;5064595;28;20110;-47
2022/06/10 04:59:12;;;;;;;4.47;1.50;;;18.20;63.70;;;;;;5062136;28;20048;-48
2022/06/10 05:01:39;;;;;;;4.22;1.60;;;18.20;63.50;;;;;;5059428;28;20458;-49
2022/06/10 05:04:06;;;;;;;4.25;1.67;;;18.20;63.60;;;;;;5061017;28;20454;-49
2022/06/10 05:06:33;;;;;;;3.65;1.67;;;18.30;63.60;;;;;;5057626;28;20064;-50
2022/06/10 05:09:00;;;;;;;4.10;1.65;;;18.30;63.60;;;;;;5062659;28;20098;-47
2022/06/10 05:11:27;;;;;;;5.28;2.08;;;18.30;63.20;;;;;;5065408;28;20458;-45
2022/06/10 05:13:54;;;;;;;6.25;2.42;;;18.40;63.20;;;;;;5060161;28;20117;-46
2022/06/10 05:16:24;;;;;;;5.35;1.70;;;18.40;62.90;;;;;;5057747;28;20059;-46
2022/06/10 05:18:51;;;;;;;3.60;1.75;;;18.40;62.80;;;;;;5058651;28;20052;-48
2022/06/10 05:21:18;;;;;;;4.75;1.92;;;18.50;62.70;;;;;;5060094;28;20575;-48
2022/06/10 05:23:45;;;;;;;3.33;1.48;;;18.50;62.50;;;;;;5052763;28;20037;-45
2022/06/10 05:26:14;;;;;;;6.65;1.63;;;18.60;62.90;;;;;;5065779;28;20049;-48
2022/06/10 05:28:40;;;;;;;3.83;1.60;;;18.60;63.00;;;;;;5060597;28;20447;-47
2022/06/10 05:31:07;;;;;;;4.07;1.45;;;18.60;63.30;;;;;;5073413;28;20052;-46
2022/06/10 05:36:19;;;;;;;2.95;1.60;;;18.70;62.40;;;;;;5057466;28;20071;-47
2022/06/10 05:38:46;;;;;;;4.07;1.60;;;18.80;62.40;;;;;;5066563;28;20048;-46
2022/06/10 05:43:58;;;;;;;7.43;1.63;;;18.80;62.40;;;;;;5063507;28;20048;-48
2022/06/10 05:46:25;;;;;;;7.18;1.90;;;18.90;62.40;;;;;;5057759;28;20512;-47
2022/06/10 05:48:52;;;;;;;5.03;1.58;;;18.90;62.20;;;;;;5067925;28;20040;-46
2022/06/10 05:51:19;;;;;;;2.72;1.40;;;18.90;62.10;;;;;;5066045;28;20087;-50
2022/06/10 05:53:46;;;;;;;5.60;1.70;;;18.90;62.00;;;;;;5067474;28;20048;-48
2022/06/10 05:56:12;;;;;;;6.28;2.55;;;18.90;62.20;;;;;;5065995;28;20181;-47
2022/06/10 05:58:39;;;;;;;3.75;2.00;;;18.90;62.40;;;;;;5066810;28;20044;-49
2022/06/10 06:01:06;;;;;;;5.20;1.45;;;19.00;62.60;;;;;;5068452;28;20438;-48
2022/06/10 06:03:32;;;;;;;5.88;1.60;;;19.10;62.70;;;;;;5059479;28;20037;-47
2022/06/10 06:06:00;;;;;;;3.28;1.23;;;19.10;62.60;;;;;;5058292;28;20044;-46
2022/06/10 06:08:27;;;;;;;5.15;1.25;;;19.20;62.60;;;;;;5061711;28;20501;-45
2022/06/10 06:10:54;;;;;;;4.72;1.45;;;19.30;62.50;;;;;;5060284;28;20090;-45
2022/06/10 06:13:20;;;;;;;4.32;2.05;;;19.40;62.70;;;;;;5058109;28;20554;-46
2022/06/10 06:15:47;;;;;;;2.60;1.10;;;19.40;62.60;;;;;;5066373;28;20095;-47
2022/06/10 06:18:20;;;;;;;5.57;1.40;;;19.50;62.40;;;;;;5067834;28;20056;-46
2022/06/10 06:20:46;;;;;;;4.25;1.30;;;19.60;62.30;;;;;;5055756;28;20067;-47
2022/06/10 06:23:13;;;;;;;4.57;1.40;;;19.60;62.00;;;;;;5068455;28;20090;-47
2022/06/10 06:25:40;;;;;;;1.88;1.17;;;19.70;61.90;;;;;;5046720;28;20041;-48
2022/06/10 06:28:07;;;;;;;2.25;1.10;;;19.70;62.20;;;;;;5051108;28;20032;-47
2022/06/10 06:30:36;;;;;;;4.25;1.30;;;19.80;62.00;;;;;;5067972;28;20492;-49
2022/06/10 06:33:06;;;;;;;2.20;1.13;;;19.90;62.10;;;;;;5059382;28;20101;-47
2022/06/10 06:35:35;;;;;;;2.67;1.25;;;20.00;62.10;;;;;;5080520;22;20481;-45
2022/06/10 06:38:03;;;;;;;3.08;1.65;;;20.00;62.20;;;;;;5050685;28;20041;-49
2022/06/10 06:40:30;;;;;;;2.58;1.20;;;20.00;61.50;;;;;;5059104;28;20060;-50
2022/06/10 06:42:57;;;;;;;2.17;1.42;;;20.10;61.60;;;;;;5067686;28;20037;-51
2022/06/10 06:45:26;;;;;;;2.85;1.33;;;20.10;61.30;;;;;;5053144;28;20083;-47
2022/06/10 06:48:00;;;;;;;5.00;1.52;;;20.20;61.40;;;;;;5043513;28;20099;-46
2022/06/10 06:50:29;;;;;;;3.45;1.40;;;20.30;61.40;;;;;;5060268;28;20044;-47
2022/06/10 06:52:56;;;;;;;6.80;1.27;;;20.30;61.10;;;;;;5057991;28;20516;-49
2022/06/10 06:55:32;;;;;;;4.15;1.38;;;20.30;61.00;;;;;;5034169;28;20129;-47
2022/06/10 06:57:58;;;;;;;5.13;1.58;;;20.40;61.00;;;;;;5062566;28;20048;-47
2022/06/10 07:00:27;;;;;;;3.53;1.10;;;20.50;61.10;;;;;;5063262;28;20052;-49
2022/06/10 07:02:55;;;;;;;7.95;2.25;;;20.60;60.80;;;;;;5051897;28;20095;-50
2022/06/10 07:05:24;;;;;;;4.20;1.02;;;20.60;60.80;;;;;;5046105;28;20044;-49
2022/06/10 07:07:51;;;;;;;3.88;1.13;;;20.70;60.40;;;;;;5031918;28;20087;-48
2022/06/10 07:10:19;;;;;;;3.45;1.40;;;20.70;59.90;;;;;;5050884;28;20047;-49
2022/06/10 07:12:45;;;;;;;3.92;1.25;;;20.70;59.80;;;;;;5051484;28;20111;-48
2022/06/10 07:15:13;;;;;;;4.95;1.50;;;20.70;59.80;;;;;;5049367;28;20033;-48
2022/06/10 07:17:40;;;;;;;2.17;0.98;;;20.70;59.80;;;;;;5061513;28;20130;-51
2022/06/10 07:20:08;;;;;;;4.38;1.10;;;20.80;59.50;;;;;;5035827;28;20044;-46
2022/06/10 07:22:35;;;;;;;3.67;0.90;;;20.80;60.00;;;;;;5048444;28;20451;-47
2022/06/10 07:25:02;;;;;;;5.70;1.33;;;20.80;60.00;;;;;;5014166;28;20057;-47
2022/06/10 07:27:29;;;;;;;3.72;1.13;;;20.80;59.80;;;;;;5064426;28;20408;-47
2022/06/10 07:30:06;;;;;;;4.07;1.42;;;20.90;59.70;;;;;;5049290;28;20068;-50
2022/06/10 07:32:33;;;;;;;7.65;1.90;;;20.90;59.80;;;;;;5051590;28;20040;-47
2022/06/10 07:35:03;;;;;;;1.10;0.90;;;20.90;59.80;;;;;;5035520;28;20048;-46
2022/06/10 07:37:29;;;;;;;3.72;0.93;;;21.00;60.00;;;;;;5062479;28;20048;-49
2022/06/10 07:39:57;;;;;;;3.58;1.00;;;21.00;59.80;;;;;;5065510;28;20095;-51
2022/06/10 07:42:23;;;;;;;3.45;1.25;;;21.10;59.50;;;;;;5070867;28;20439;-49
2022/06/10 07:44:50;;;;;;;3.60;1.13;;;21.10;59.10;;;;;;5053725;28;20500;-50
2022/06/10 07:47:17;;;;;;;2.67;1.55;;;21.10;59.20;;;;;;5059292;28;20040;-49
2022/06/10 07:49:44;;;;;;;4.63;1.17;;;21.10;59.30;;;;;;5069312;28;20040;-46
2022/06/10 07:52:12;;;;;;;2.30;1.17;;;21.20;59.20;;;;;;5052323;28;20044;-50
2022/06/10 07:54:39;;;;;;;3.20;0.90;;;21.20;59.40;;;;;;5046512;28;20102;-48
2022/06/10 07:57:08;;;;;;;3.03;0.85;;;21.30;59.30;;;;;;5058105;28;20045;-48
2022/06/10 07:59:34;;;;;;;4.70;1.05;;;21.30;58.80;;;;;;5070410;28;20516;-47
2022/06/10 08:02:01;;;;;;;5.50;2.05;;;21.30;58.80;;;;;;5034098;28;20048;-51
2022/06/10 08:04:28;;;;;;;3.10;0.90;;;21.40;58.90;;;;;;5055407;28;20052;-47
2022/06/10 08:06:55;;;;;;;3.28;1.10;;;21.50;59.20;;;;;;5049177;28;20480;-50
2022/06/10 08:09:23;;;;;;;3.05;1.00;;;21.50;58.80;;;;;;5041936;28;20091;-49
2022/06/10 08:11:51;;;;;;;3.38;1.00;;;21.60;58.50;;;;;;5044966;28;20067;-49
2022/06/10 08:14:20;;;;;;;3.95;1.13;;;21.60;58.80;;;;;;5055492;28;20049;-51
2022/06/10 08:16:49;;;;;;;2.90;0.95;;;21.70;58.90;;;;;;5048380;28;20045;-50
2022/06/10 08:19:15;;;;;;;4.50;0.95;;;21.80;58.60;;;;;;5055291;28;20059;-51
2022/06/10 08:24:27;;;;;;;3.60;1.30;;;22.00;58.40;;;;;;5056114;28;20048;-51
2022/06/10 08:26:54;;;;;;;2.92;0.85;;;22.20;57.80;;;;;;5042397;28;20697;-50
2022/06/10 08:29:21;;;;;;;5.28;1.13;;;22.20;57.10;;;;;;5046037;28;20049;-50
2022/06/10 08:31:48;;;;;;;6.00;1.30;;;22.30;56.60;;;;;;5061391;28;20105;-49
2022/06/10 08:34:15;;;;;;;3.10;1.00;;;22.40;57.20;;;;;;5062118;28;20040;-51
2022/06/10 08:36:42;;;;;;;7.32;1.58;;;22.40;56.10;;;;;;5053280;28;20508;-50
2022/06/10 08:39:10;;;;;;;4.93;2.08;;;22.50;55.70;;;;;;5048648;28;20602;-50
2022/06/10 08:42:06;;;;;;;4.57;1.33;;;22.50;55.70;;;;;;5049512;28;20079;-52
2022/06/10 08:44:52;;;;;;;2.05;0.98;;;22.60;56.20;;;;;;5049647;28;20040;-50
2022/06/10 08:47:50;;;;;;;2.33;0.80;;;22.60;56.00;;;;;;5033677;28;20026;-50
2022/06/10 08:50:55;;;;;;;2.90;0.80;;;22.70;55.70;;;;;;5055790;28;20086;-49
2022/06/10 08:53:30;;;;;;;2.88;1.10;;;22.80;55.60;;;;;;5051356;28;20062;-51
2022/06/10 08:56:03;;;;;;;3.92;1.02;;;22.80;55.00;;;;;;5046840;28;20041;-50
2022/06/10 08:58:44;;;;;;;2.97;1.10;;;22.90;55.30;;;;;;5051542;28;20041;-51
2022/06/10 09:01:18;;;;;;;2.83;0.90;;;23.00;55.40;;;;;;5051579;28;20065;-48
2022/06/10 09:03:56;;;;;;;3.85;0.70;;;23.00;55.30;;;;;;5056034;28;20047;-51
2022/06/10 09:06:34;;;;;;;4.22;1.38;;;23.10;55.30;;;;;;5035566;28;20061;-47
2022/06/10 09:09:05;;;;;;;5.72;1.15;;;23.20;54.90;;;;;;5047764;28;20433;-50
2022/06/10 09:11:48;;;;;;;2.08;0.93;;;23.20;55.20;;;;;;5056551;28;20064;-49
2022/06/10 09:14:24;;;;;;;4.32;0.80;;;23.40;55.00;;;;;;5047491;28;20103;-46
2022/06/10 09:17:06;;;;;;;2.20;1.15;;;23.50;54.50;;;;;;5043662;28;20424;-46
2022/06/10 09:19:40;;;;;;;3.53;0.90;;;23.70;54.30;;;;;;5048161;28;20096;-48
2022/06/10 09:22:38;;;;;;;5.28;1.60;;;23.90;54.50;;;;;;5031322;28;20053;-49
2022/06/10 09:25:31;;;;;;;2.50;0.73;;;23.90;53.80;;;;;;5031263;28;20037;-48
2022/06/10 09:28:01;;;;;;;1.95;0.90;;;24.10;53.50;;;;;;5056184;28;20049;-47
2022/06/10 09:30:56;;;;;;;3.63;1.02;;;24.20;53.90;;;;;;5055940;28;20067;-51
2022/06/10 09:33:45;;;;;;;3.53;0.80;;;24.40;53.50;;;;;;5048696;28;20062;-47
2022/06/10 09:36:30;;;;;;;4.38;0.95;;;24.60;52.90;;;;;;5037116;28;20042;-48
2022/06/10 09:40:35;;;;;;;3.72;1.33;;;24.70;52.70;;;;;;5061972;28;20106;-46
2022/06/10 09:42:29;;;;;;;2.38;0.90;;;24.80;53.20;;;;;;5028909;28;20599;-50
2022/06/10 09:45:09;;;;;;;4.60;1.38;;;24.90;51.80;;;;;;5044784;28;20037;-49
2022/06/10 09:47:55;;;;;;;2.25;0.70;;;25.10;52.10;;;;;;5058703;28;20041;-52
2022/06/10 09:50:41;;;;;;;2.17;0.73;;;25.10;51.60;;;;;;5046619;28;20079;-48
2022/06/10 09:53:12;;;;;;;4.55;1.08;;;25.20;50.60;;;;;;5052987;28;20072;-48
2022/06/10 09:56:08;;;;;;;2.80;1.20;;;25.30;51.00;;;;;;5046819;28;20106;-51
2022/06/10 09:58:50;;;;;;;3.05;1.17;;;25.40;50.60;;;;;;5048032;28;20049;-49
2022/06/10 10:01:31;;;;;;;;;;;25.40;50.10;;;;;;5048452;28;20102;-49
2022/06/10 10:04:21;;;;;;;3.58;1.23;;;25.40;52.20;;;;;;5047862;28;19936;-49
2022/06/10 10:07:03;;;;;;;6.43;1.52;;;25.40;49.80;;;;;;5060478;28;20497;-52
2022/06/10 10:09:50;;;;;;;4.32;1.58;;;25.40;49.40;;;;;;5049021;28;20046;-51
2022/06/10 10:12:31;;;;;;;3.88;1.48;;;25.40;50.40;;;;;;5049046;28;20095;-51
2022/06/10 10:15:19;;;;;;;3.58;0.93;;;25.40;51.00;;;;;;5048342;28;20106;-51
2022/06/10 10:17:57;;;;;;;2.90;1.20;;;25.40;49.90;;;;;;5046796;28;20510;-51
2022/06/10 10:21:03;;;;;;;4.07;0.93;;;25.30;48.70;;;;;;5065460;28;20131;-49
2022/06/10 10:23:50;;;;;;;2.78;1.00;;;25.30;49.80;;;;;;5052122;28;20052;-52
2022/06/10 10:26:37;;;;;;;4.60;1.10;;;25.40;49.70;;;;;;5056564;28;20057;-48
2022/06/10 10:29:26;;;;;;;3.55;1.40;;;25.40;49.40;;;;;;5053002;28;20443;-49
2022/06/10 10:32:00;;;;;;;4.07;0.90;;;25.40;49.40;;;;;;5050577;28;20045;-51
2022/06/10 10:34:38;;;;;;;2.45;1.02;;;25.40;49.50;;;;;;5049242;28;20037;-50
2022/06/10 10:37:27;;;;;;;3.92;1.15;;;25.50;50.00;;;;;;5044047;28;20045;-50
2022/06/10 10:40:23;;;;;;;3.53;1.20;;;25.60;50.50;;;;;;5045458;28;20496;-49
2022/06/10 10:42:55;;;;;;;5.25;1.27;;;25.70;49.10;;;;;;5011968;28;20064;-48
2022/06/10 10:45:34;;;;;;;2.38;1.08;;;25.80;49.10;;;;;;5035866;28;20037;-45
2022/06/10 10:48:16;;;;;;;2.38;1.00;;;25.90;49.40;;;;;;5027000;28;20045;-49
2022/06/10 10:50:56;;;;;;;3.22;0.98;;;26.10;48.90;;;;;;5042818;28;20087;-50
2022/06/10 10:53:27;;;;;;;3.10;0.98;;;26.30;48.20;;;;;;5028291;28;20149;-46
2022/06/10 10:55:58;;;;;;;2.63;1.10;;;26.40;48.80;;;;;;5038089;28;20045;-47
2022/06/10 10:58:34;;;;;;;2.67;0.88;;;26.60;47.80;;;;;;5026677;28;20045;-48
2022/06/10 11:01:43;;;;;;;6.88;1.38;;;26.60;47.30;;;;;;5041074;28;20094;-48
2022/06/10 11:03:56;;;;;;;3.65;1.10;;;26.70;47.50;;;;;;5035638;28;20107;-51
2022/06/10 11:06:32;;;;;;;4.28;1.13;;;26.80;47.80;;;;;;5039567;28;20037;-48
2022/06/10 11:09:21;;;;;;;4.22;1.25;;;26.90;47.70;;;;;;5030940;28;20037;-46
2022/06/10 11:11:50;;;;;;;4.65;1.85;;;26.90;47.30;;;;;;5026753;28;20056;-45
2022/06/10 11:14:34;;;;;;;4.43;1.45;;;26.90;47.10;;;;;;5014277;28;20504;-45
2022/06/10 11:17:14;;;;;;;2.88;1.08;;;26.90;47.00;;;;;;5034708;28;20044;-51
2022/06/10 11:19:48;;;;;;;3.05;1.05;;;26.90;47.40;;;;;;5027391;28;20041;-49
2022/06/10 11:22:35;;;;;;;3.25;1.35;;;26.90;47.60;;;;;;5036010;28;20044;-49
2022/06/10 11:25:06;;;;;;;3.70;1.20;;;26.90;46.90;;;;;;5031600;28;20037;-49
2022/06/10 11:27:39;;;;;;;4.68;1.52;;;26.90;47.80;;;;;;5038882;28;20032;-49
2022/06/10 11:30:13;;;;;;;3.95;1.13;;;26.90;48.20;;;;;;5012232;28;20120;-52
2022/06/10 11:32:48;;;;;;;3.65;1.15;;;27.00;47.30;;;;;;5038165;28;20028;-48
2022/06/10 11:35:24;;;;;;;5.43;1.75;;;27.10;46.90;;;;;;5036801;28;20041;-52
2022/06/10 11:38:04;;;;;;;5.05;1.30;;;27.20;47.10;;;;;;5039345;28;20045;-51
2022/06/10 11:40:42;;;;;;;5.28;1.45;;;27.30;47.70;;;;;;5036320;28;20087;-51
2022/06/10 11:43:35;;;;;;;2.95;1.02;;;27.50;46.60;;;;;;5040224;28;20049;-50
2022/06/10 11:46:27;;;;;;;4.43;1.52;;;27.50;46.10;;;;;;5030801;28;20116;-48
2022/06/10 11:49:21;;;;;;;3.72;1.30;;;27.70;46.00;;;;;;5047474;28;20557;-47
2022/06/10 11:52:03;;;;;;;4.50;1.80;;;27.80;45.80;;;;;;5036338;28;20041;-50
2022/06/10 11:54:36;;;;;;;10.18;2.22;;;27.90;45.70;;;;;;5029749;28;20181;-46
2022/06/10 12:00:33;;;;;;;4.53;1.52;;;28.10;45.20;;;;;;5028468;28;20115;-51
2022/06/10 12:03:21;;;;;;;6.20;1.52;;;28.30;45.40;;;;;;5040089;28;20048;-51
2022/06/10 12:06:27;;;;;;;6.63;1.65;;;28.40;45.20;;;;;;5028982;28;20044;-52
2022/06/10 12:09:00;;;;;;;3.67;1.40;;;28.50;45.70;;;;;;5047278;28;20607;-47
2022/06/10 12:11:52;;;;;;;2.78;1.50;;;28.60;45.10;;;;;;5029058;28;20045;-50
2022/06/10 12:14:28;;;;;;;2.83;1.33;;;28.60;44.60;;;;;;5034390;28;20048;-51
2022/06/10 12:17:20;;;;;;;1.63;1.05;;;28.70;44.30;;;;;;5040358;28;20045;-51
2022/06/10 12:19:52;;;;;;;7.50;2.03;;;28.70;44.70;;;;;;5034164;28;20041;-50
2022/06/10 12:22:19;;;;;;;4.13;1.55;;;28.70;45.00;;;;;;5034098;28;20041;-47
2022/06/10 12:24:49;;;;;;;7.75;2.03;;;28.70;44.90;;;;;;5041522;28;20041;-52
2022/06/10 12:27:32;;;;;;;5.10;1.55;;;28.70;44.70;;;;;;5051141;28;20091;-49
2022/06/10 12:30:38;;;;;;;5.45;1.48;;;28.80;45.50;;;;;;5032115;28;20103;-51
2022/06/10 12:33:19;;;;;;;4.57;2.67;;;28.90;45.00;;;;;;5030885;28;20045;-49
2022/06/10 12:35:47;;;;;;;5.55;1.90;;;29.10;43.80;;;;;;5032199;28;20074;-50
2022/06/10 12:38:24;;;;;;;7.38;2.63;;;29.20;44.10;;;;;;5051927;28;20056;-51
2022/06/10 12:41:15;;;;;;;4.88;1.70;;;29.30;43.50;;;;;;5015830;28;20040;-51
2022/06/10 12:43:47;;;;;;;3.95;2.03;;;29.40;43.50;;;;;;5039023;28;20053;-50
2022/06/10 12:46:30;;;;;;;5.65;1.50;;;29.40;43.50;;;;;;5030698;28;20041;-48
2022/06/10 12:49:04;;;;;;;5.10;1.90;;;29.50;43.70;;;;;;5030208;28;20052;-47
2022/06/10 12:51:43;;;;;;;5.85;2.00;;;29.50;43.50;;;;;;5030855;28;20393;-46
2022/06/10 12:54:22;;;;;;;4.40;1.48;;;29.60;42.80;;;;;;5044761;28;20103;-48
2022/06/10 12:57:09;;;;;;;4.50;1.27;;;29.60;43.80;;;;;;5045181;28;20045;-51
2022/06/10 12:59:36;;;;;;;5.07;1.77;;;29.70;43.20;;;;;;5021406;28;20393;-45
2022/06/10 13:02:33;;;;;;;5.40;1.90;;;29.80;43.10;;;;;;5040845;28;20405;-49
2022/06/10 13:05:15;;;;;;;6.30;1.98;;;29.90;42.30;;;;;;5029346;28;20041;-50
2022/06/10 13:07:43;;;;;;;3.75;1.35;;;30.00;42.30;;;;;;5039182;28;20057;-47
2022/06/10 13:10:38;;;;;;;3.72;1.85;;;30.10;42.80;;;;;;5026797;28;20099;-49
2022/06/10 13:13:11;;;;;;;5.50;2.47;;;30.20;41.40;;;;;;5042759;28;20040;-50
2022/06/10 13:15:39;;;;;;;5.88;1.65;;;30.30;41.60;;;;;;5023349;28;20052;-49
2022/06/10 13:18:18;;;;;;;5.75;1.45;;;30.40;42.40;;;;;;5036519;28;20460;-49
2022/06/10 13:20:47;;;;;;;6.75;2.15;;;30.50;41.30;;;;;;5025999;28;20048;-50
2022/06/10 13:23:19;;;;;;;3.75;1.48;;;30.60;41.10;;;;;;5046542;28;20093;-50
2022/06/10 13:25:50;;;;;;;3.72;1.48;;;30.60;41.80;;;;;;5025797;28;20116;-45
2022/06/10 13:28:23;;;;;;;4.55;1.05;;;30.70;41.90;;;;;;5043738;28;20504;-48
2022/06/10 13:31:00;;;;;;;3.38;1.08;;;30.90;41.00;;;;;;5036905;28;20428;-49
2022/06/10 13:33:27;;;;;;;5.05;1.13;;;31.20;41.20;;;;;;5047643;28;20044;-52
2022/06/10 13:35:55;;;;;;;4.75;1.25;;;31.80;40.80;;;;;;5022425;28;20045;-49
2022/06/10 13:38:27;;;;;;;7.00;1.10;;;32.50;41.20;;;;;;5029593;28;20073;-51
2022/06/10 13:44:06;;;;;;;2.28;1.02;;;34.30;39.20;;;;;;5031678;28;20110;-47
2022/06/10 13:46:33;;;;;;;4.35;1.25;;;35.50;39.40;;;;;;5024771;28;20157;-51
2022/06/10 13:49:45;;;;;;;3.50;1.00;;;36.60;37.90;;;;;;5038787;28;20099;-49
2022/06/10 13:52:29;;;;;;;2.55;0.80;;;37.60;37.30;;;;;;5033690;28;20505;-52